Aviation Digital Data Service (ADDS)

Output produced by TAFs form (1118 UTC 24 April 2017)
found at http://www.aviationweather.gov/adds/tafs/
 
METAR text: ZSSS 241100Z 15004MPS CAVOK 20/12 Q1014 NOSIG
Conditions at: ZSSS (SHANGHAI/HONGQIA, CN) observed 1100 UTC 24 April 2017
Temperature: 20.0°C (68°F)
Dewpoint: 12.0°C (54°F) [RH = 60%]
Pressure (altimeter): 29.94 inches Hg (1014.0 mb)
Winds: from the SSE (150 degrees) at 9 MPH (8 knots; 4.2 m/s)
Visibility: 6 or more miles (10+ km)
Ceiling: ceiling and visibility are OK
Clouds: unknown
Weather: no significant weather observed at this time

Forecast for: ZSSS (SHANGHAI/HONGQIA, CN)
Text: TAF ZSSS 240912Z 2412/2512 13004MPS 5000 BR SCT020 TX25/2506Z TN16/2421Z
Forecast period: 1200 UTC 24 April 2017 to 1200 UTC 25 April 2017
Forecast type: FROM: standard forecast or significant change
Winds: from the SE (130 degrees) at 9 MPH (8 knots; 4.2 m/s)
Visibility: 3 miles (5 km)
Clouds: scattered clouds at 2000 feet AGL
Weather: BR  (mist)